Willimantic, CT

7:42 AM EST on January 29, 2015 (GMT -0500)
Southwest Ashford | Change Station
CLOSE
Current Station
Personal Weather Station
Location: Ashford, CT
Elevation: 564 ft
Nearby Weather Stations

Elev 564 ft 41.84 °N, 72.19 °W | Updated 11 seconds ago

Clear
Clear
-3.9 °F
Feels Like -4 °F
N
0.0
Wind Variable Wind from NNW
Gusts 1.0 mph

Today
High -- | Low -- °F
--% Chance of Precip.
Yesterday
High -- | Low -- °F
Precip. -- in
7:04 AM 5:00 PM
Waxing Gibbous, 74% visible
Pressure 30.33 in
Visibility 9.0 miles
Clouds Clear
Windchill -4 °F
Dew Point -8 °F
Humidity 84%
Rainfall 0.00 in
Snow Depth Not available.
UV 0 out of 12
Pollen .10 out of 12
Air Quality Not available.
Flu Activity Not available.
METAR KIJD 291152Z AUTO 04003KT 9SM CLR M23/M26 A3031 RMK AO2 SLP270 I6000 T12281261 11161 21228 53004 $

More Conditions Fewer Conditions

Pressure 30.33 in
Visibility 9.0 miles
Clouds Clear
Windchill -4 °F
Dew Point -8 °F
Humidity 84%
Rainfall 0.00 in
Snow Depth Not available.
UV 0 out of 12
Pollen .10 out of 12
Air Quality Not available.
Flu Activity Not available.
METAR KIJD 291152Z AUTO 04003KT 9SM CLR M23/M26 A3031 RMK AO2 SLP270 I6000 T12281261 11161 21228 53004 $

More Conditions Fewer Conditions

10-Day Weather Forecast

Almanac

Astronomy

Jan. 29, 2015 Rise Set
Actual Time
Civil Twilight
Nautical Twilight
Astronomical Twilight
Moon
Length of Visible Light
Length of Day
Tomorrow will be .
, % of the Moon is Illuminated

Today's Extremes

State Highs State Lows

Community

WunderPhotos

Upload Photos

1,791,420 photos uploaded!

WunderBlogs® & News

Nearby

Air Quality

  Air Quality AQ Index Pollutant
Not available.

Snow Depth

Station Depth Elevation

Earthquake Activity

City Distance Mag. Time & Date
Minimum magnitude displayed is 2.5.

Coastal Water Temperatures

Place Temperature

Nearby Weather Stations